sensor_id;sensor_type;location;lat;lon;timestamp;pressure;altitude;pressure_sealevel;temperature;humidity
25560;BME280;13450;49.374;8.584;2023-02-10T00:00:13;102506.41;;;-3.73;100.00
25560;BME280;13450;49.374;8.584;2023-02-10T00:02:41;102496.84;;;-3.74;100.00
25560;BME280;13450;49.374;8.584;2023-02-10T00:05:08;102504.59;;;-3.71;100.00
25560;BME280;13450;49.374;8.584;2023-02-10T00:07:33;102510.81;;;-3.75;100.00
25560;BME280;13450;49.374;8.584;2023-02-10T00:10:01;102503.94;;;-3.79;100.00
25560;BME280;13450;49.374;8.584;2023-02-10T00:12:29;102499.69;;;-3.84;100.00
25560;BME280;13450;49.374;8.584;2023-02-10T00:14:59;102507.63;;;-3.87;100.00
25560;BME280;13450;49.374;8.584;2023-02-10T00:17:25;102512.91;;;-3.88;100.00
25560;BME280;13450;49.374;8.584;2023-02-10T00:19:56;102506.03;;;-3.92;100.00
25560;BME280;13450;49.374;8.584;2023-02-10T00:22:29;102518.22;;;-3.91;100.00
25560;BME280;13450;49.374;8.584;2023-02-10T00:24:55;102519.16;;;-3.94;100.00
25560;BME280;13450;49.374;8.584;2023-02-10T00:27:33;102518.34;;;-3.96;100.00
25560;BME280;13450;49.374;8.584;2023-02-10T00:29:58;102525.34;;;-3.98;100.00
25560;BME280;13450;49.374;8.584;2023-02-10T00:32:24;102524.56;;;-4.00;100.00
25560;BME280;13450;49.374;8.584;2023-02-10T00:34:55;102529.78;;;-4.00;100.00
25560;BME280;13450;49.374;8.584;2023-02-10T00:37:26;102536.66;;;-3.96;100.00
25560;BME280;13450;49.374;8.584;2023-02-10T00:39:58;102538.44;;;-3.98;100.00
25560;BME280;13450;49.374;8.584;2023-02-10T00:42:33;102534.16;;;-4.01;100.00
25560;BME280;13450;49.374;8.584;2023-02-10T00:45:15;102535.03;;;-4.00;100.00
25560;BME280;13450;49.374;8.584;2023-02-10T00:48:11;102535.03;;;-4.00;100.00
25560;BME280;13450;49.374;8.584;2023-02-10T00:51:07;102533.34;;;-4.03;100.00
25560;BME280;13450;49.374;8.584;2023-02-10T00:53:33;102537.66;;;-4.02;100.00
25560;BME280;13450;49.374;8.584;2023-02-10T00:56:04;102545.47;;;-4.00;100.00
25560;BME280;13450;49.374;8.584;2023-02-10T00:58:30;102552.50;;;-4.02;100.00
25560;BME280;13450;49.374;8.584;2023-02-10T01:00:59;102548.84;;;-3.95;100.00
25560;BME280;13450;49.374;8.584;2023-02-10T01:03:30;102555.84;;;-3.97;100.00
25560;BME280;13450;49.374;8.584;2023-02-10T01:05:59;102557.69;;;-4.01;100.00
25560;BME280;13450;49.374;8.584;2023-02-10T01:08:25;102561.16;;;-3.99;100.00
25560;BME280;13450;49.374;8.584;2023-02-10T01:11:03;102568.13;;;-3.99;100.00
25560;BME280;13450;49.374;8.584;2023-02-10T01:13:29;102568.13;;;-3.99;100.00
25560;BME280;13450;49.374;8.584;2023-02-10T01:15:58;102569.00;;;-3.99;100.00
25560;BME280;13450;49.374;8.584;2023-02-10T01:18:31;102571.66;;;-4.00;100.00
25560;BME280;13450;49.374;8.584;2023-02-10T01:20:57;102572.50;;;-4.00;100.00
25560;BME280;13450;49.374;8.584;2023-02-10T01:23:25;102583.81;;;-3.99;100.00
25560;BME280;13450;49.374;8.584;2023-02-10T01:25:52;102575.22;;;-4.04;100.00
25560;BME280;13450;49.374;8.584;2023-02-10T02:02:44;102581.28;;;-4.02;100.00
25560;BME280;13450;49.374;8.584;2023-02-10T02:05:29;102577.78;;;-4.01;100.00
25560;BME280;13450;49.374;8.584;2023-02-10T02:08:02;102581.25;;;-4.01;100.00
25560;BME280;13450;49.374;8.584;2023-02-10T02:16:24;102580.47;;;-4.04;100.00
25560;BME280;13450;49.374;8.584;2023-02-10T02:18:58;102583.84;;;-4.01;100.00
25560;BME280;13450;49.374;8.584;2023-02-10T02:24:21;102582.25;;;-4.07;100.00
25560;BME280;13450;49.374;8.584;2023-02-10T02:32:59;102590.19;;;-4.10;100.00
25560;BME280;13450;49.374;8.584;2023-02-10T02:35:32;102584.94;;;-4.10;100.00
25560;BME280;13450;49.374;8.584;2023-02-10T02:38:03;102577.13;;;-4.11;100.00
25560;BME280;13450;49.374;8.584;2023-02-10T02:40:28;102587.56;;;-4.10;100.00
25560;BME280;13450;49.374;8.584;2023-02-10T02:42:54;102596.22;;;-4.08;100.00
25560;BME280;13450;49.374;8.584;2023-02-10T02:45:26;102597.94;;;-4.07;100.00
25560;BME280;13450;49.374;8.584;2023-02-10T02:53:48;102607.69;;;-4.13;100.00
25560;BME280;13450;49.374;8.584;2023-02-10T02:56:34;102601.59;;;-4.12;100.00
25560;BME280;13450;49.374;8.584;2023-02-10T03:17:48;102626.06;;;-4.15;100.00
25560;BME280;13450;49.374;8.584;2023-02-10T03:20:48;102627.81;;;-4.15;100.00
25560;BME280;13450;49.374;8.584;2023-02-10T03:34:33;102632.31;;;-4.22;100.00
25560;BME280;13450;49.374;8.584;2023-02-10T03:46:50;102625.34;;;-4.22;100.00
25560;BME280;13450;49.374;8.584;2023-02-10T04:10:18;102639.38;;;-4.26;100.00
25560;BME280;13450;49.374;8.584;2023-02-10T04:17:55;102630.63;;;-4.25;100.00
25560;BME280;13450;49.374;8.584;2023-02-10T04:20:26;102640.16;;;-4.22;100.00
25560;BME280;13450;49.374;8.584;2023-02-10T04:22:52;102639.28;;;-4.23;100.00
25560;BME280;13450;49.374;8.584;2023-02-10T04:25:20;102632.38;;;-4.25;100.00
25560;BME280;13450;49.374;8.584;2023-02-10T04:27:47;102639.28;;;-4.23;100.00
25560;BME280;13450;49.374;8.584;2023-02-10T05:03:32;102677.38;;;-4.50;100.00
25560;BME280;13450;49.374;8.584;2023-02-10T05:09:34;102682.69;;;-4.55;100.00
25560;BME280;13450;49.374;8.584;2023-02-10T05:24:20;102704.72;;;-4.68;100.00
25560;BME280;13450;49.374;8.584;2023-02-10T05:26:48;102708.22;;;-4.68;100.00
25560;BME280;13450;49.374;8.584;2023-02-10T05:29:14;102708.25;;;-4.71;100.00
25560;BME280;13450;49.374;8.584;2023-02-10T05:34:15;102702.22;;;-4.73;100.00
25560;BME280;13450;49.374;8.584;2023-02-10T05:39:17;102708.38;;;-4.76;100.00
25560;BME280;13450;49.374;8.584;2023-02-10T05:44:27;102712.72;;;-4.76;100.00
25560;BME280;13450;49.374;8.584;2023-02-10T05:46:55;102712.69;;;-4.73;100.00
25560;BME280;13450;49.374;8.584;2023-02-10T05:49:25;102710.94;;;-4.74;100.00
25560;BME280;13450;49.374;8.584;2023-02-10T05:54:26;102711.00;;;-4.77;100.00
25560;BME280;13450;49.374;8.584;2023-02-10T05:59:25;102711.81;;;-4.74;100.00
25560;BME280;13450;49.374;8.584;2023-02-10T06:01:50;102712.72;;;-4.76;100.00
25560;BME280;13450;49.374;8.584;2023-02-10T06:04:16;102715.38;;;-4.79;100.00
25560;BME280;13450;49.374;8.584;2023-02-10T06:06:41;102719.66;;;-4.75;100.00
25560;BME280;13450;49.374;8.584;2023-02-10T06:09:09;102731.91;;;-4.77;100.00
25560;BME280;13450;49.374;8.584;2023-02-10T06:11:34;102732.84;;;-4.80;100.00
25560;BME280;13450;49.374;8.584;2023-02-10T06:14:00;102735.47;;;-4.81;100.00
25560;BME280;13450;49.374;8.584;2023-02-10T06:16:25;102734.63;;;-4.83;100.00
25560;BME280;13450;49.374;8.584;2023-02-10T06:18:51;102739.03;;;-4.86;100.00
25560;BME280;13450;49.374;8.584;2023-02-10T06:21:19;102742.50;;;-4.85;100.00
25560;BME280;13450;49.374;8.584;2023-02-10T06:23:50;102751.19;;;-4.84;100.00
25560;BME280;13450;49.374;8.584;2023-02-10T06:26:15;102744.22;;;-4.84;100.00
25560;BME280;13450;49.374;8.584;2023-02-10T06:28:40;102741.63;;;-4.84;100.00
25560;BME280;13450;49.374;8.584;2023-02-10T06:31:06;102745.03;;;-4.80;100.00
25560;BME280;13450;49.374;8.584;2023-02-10T06:33:33;102752.75;;;-4.74;100.00
25560;BME280;13450;49.374;8.584;2023-02-10T06:36:04;102746.50;;;-4.65;100.00
25560;BME280;13450;49.374;8.584;2023-02-10T06:38:34;102745.53;;;-4.60;100.00
25560;BME280;13450;49.374;8.584;2023-02-10T06:41:01;102750.59;;;-4.52;100.00
25560;BME280;13450;49.374;8.584;2023-02-10T06:51:12;102748.31;;;-4.23;100.00
25560;BME280;13450;49.374;8.584;2023-02-10T06:56:12;102759.53;;;-4.18;100.00
25560;BME280;13450;49.374;8.584;2023-02-10T06:58:38;102751.69;;;-4.18;100.00
25560;BME280;13450;49.374;8.584;2023-02-10T07:03:41;102755.09;;;-4.14;100.00
25560;BME280;13450;49.374;8.584;2023-02-10T07:31:58;102777.44;;;-3.99;100.00
25560;BME280;13450;49.374;8.584;2023-02-10T07:34:26;102776.66;;;-4.03;100.00
25560;BME280;13450;49.374;8.584;2023-02-10T07:57:33;102764.88;;;-3.82;100.00
25560;BME280;13450;49.374;8.584;2023-02-10T08:02:35;102763.75;;;-3.71;100.00
25560;BME280;13450;49.374;8.584;2023-02-10T10:14:57;102816.34;;;1.63;100.00
25560;BME280;13450;49.374;8.584;2023-02-10T10:30:47;102825.06;;;2.61;100.00
25560;BME280;13450;49.374;8.584;2023-02-10T10:33:25;102817.69;;;2.68;100.00
25560;BME280;13450;49.374;8.584;2023-02-10T10:35:54;102811.34;;;2.90;100.00
25560;BME280;13450;49.374;8.584;2023-02-10T10:38:27;102806.84;;;3.10;100.00
25560;BME280;13450;49.374;8.584;2023-02-10T10:40:59;102805.13;;;3.44;100.00
25560;BME280;13450;49.374;8.584;2023-02-10T10:43:30;102807.16;;;4.39;100.00
25560;BME280;13450;49.374;8.584;2023-02-10T10:46:12;102810.78;;;6.32;97.66
25560;BME280;13450;49.374;8.584;2023-02-10T10:48:41;102809.41;;;8.48;71.93
25560;BME280;13450;49.374;8.584;2023-02-10T10:51:08;102794.44;;;9.53;59.48
25560;BME280;13450;49.374;8.584;2023-02-10T10:53:35;102807.94;;;10.53;54.83
25560;BME280;13450;49.374;8.584;2023-02-10T10:56:03;102802.44;;;11.30;50.84
25560;BME280;13450;49.374;8.584;2023-02-10T10:58:37;102791.84;;;12.62;47.04
25560;BME280;13450;49.374;8.584;2023-02-10T11:01:03;102792.81;;;12.51;44.05
25560;BME280;13450;49.374;8.584;2023-02-10T11:13:52;102785.06;;;15.37;37.03
25560;BME280;13450;49.374;8.584;2023-02-10T11:16:18;102777.31;;;16.37;34.93
25560;BME280;13450;49.374;8.584;2023-02-10T11:18:58;102784.44;;;16.79;34.18
25560;BME280;13450;49.374;8.584;2023-02-10T11:21:39;102775.97;;;16.91;33.38
25560;BME280;13450;49.374;8.584;2023-02-10T11:27:05;102780.88;;;16.87;32.46
25560;BME280;13450;49.374;8.584;2023-02-10T11:29:40;102777.56;;;15.57;34.36
25560;BME280;13450;49.374;8.584;2023-02-10T11:48:12;102763.69;;;10.92;42.06
25560;BME280;13450;49.374;8.584;2023-02-10T11:51:30;102760.66;;;9.75;44.49
25560;BME280;13450;49.374;8.584;2023-02-10T12:10:46;102751.38;;;6.99;54.87
25560;BME280;13450;49.374;8.584;2023-02-10T12:16:12;102744.94;;;6.35;55.55
25560;BME280;13450;49.374;8.584;2023-02-10T12:18:54;102737.63;;;6.39;57.04
25560;BME280;13450;49.374;8.584;2023-02-10T12:26:30;102734.53;;;6.73;59.46
25560;BME280;13450;49.374;8.584;2023-02-10T12:31:51;102720.38;;;6.85;59.11
25560;BME280;13450;49.374;8.584;2023-02-10T12:43:12;102705.41;;;9.97;50.55
25560;BME280;13450;49.374;8.584;2023-02-10T12:46:14;102712.91;;;11.43;46.73
25560;BME280;13450;49.374;8.584;2023-02-10T12:51:34;102706.97;;;12.89;41.51
25560;BME280;13450;49.374;8.584;2023-02-10T12:56:40;102701.81;;;13.43;39.48
25560;BME280;13450;49.374;8.584;2023-02-10T12:59:14;102702.25;;;15.29;35.87
25560;BME280;13450;49.374;8.584;2023-02-10T13:02:14;102698.97;;;16.12;34.55
25560;BME280;13450;49.374;8.584;2023-02-10T13:05:05;102697.94;;;16.63;32.50
25560;BME280;13450;49.374;8.584;2023-02-10T13:07:49;102693.38;;;16.63;32.56
25560;BME280;13450;49.374;8.584;2023-02-10T13:10:20;102698.03;;;18.06;30.87
25560;BME280;13450;49.374;8.584;2023-02-10T13:12:50;102700.69;;;18.38;30.27
25560;BME280;13450;49.374;8.584;2023-02-10T13:15:25;102699.94;;;18.29;29.66
25560;BME280;13450;49.374;8.584;2023-02-10T13:17:51;102695.38;;;18.45;33.28
25560;BME280;13450;49.374;8.584;2023-02-10T13:20:28;102694.22;;;18.92;29.53
25560;BME280;13450;49.374;8.584;2023-02-10T13:28:27;102699.69;;;17.60;31.01
25560;BME280;13450;49.374;8.584;2023-02-10T13:31:08;102699.59;;;18.47;30.41
25560;BME280;13450;49.374;8.584;2023-02-10T13:34:02;102688.66;;;17.94;31.05
25560;BME280;13450;49.374;8.584;2023-02-10T13:36:28;102693.53;;;17.98;29.96
25560;BME280;13450;49.374;8.584;2023-02-10T13:39:25;102692.59;;;18.14;30.31
25560;BME280;13450;49.374;8.584;2023-02-10T13:42:07;102699.00;;;17.90;30.48
25560;BME280;13450;49.374;8.584;2023-02-10T13:44:33;102698.09;;;16.53;32.09
25560;BME280;13450;49.374;8.584;2023-02-10T13:49:36;102699.59;;;17.45;31.72
25560;BME280;13450;49.374;8.584;2023-02-10T13:52:21;102691.56;;;18.15;29.95
25560;BME280;13450;49.374;8.584;2023-02-10T13:55:00;102687.50;;;19.03;28.68
25560;BME280;13450;49.374;8.584;2023-02-10T13:57:30;102689.47;;;17.71;29.42
25560;BME280;13450;49.374;8.584;2023-02-10T14:00:20;102695.97;;;15.72;32.58
25560;BME280;13450;49.374;8.584;2023-02-10T14:03:18;102697.59;;;14.60;34.37
25560;BME280;13450;49.374;8.584;2023-02-10T14:06:03;102696.41;;;13.15;36.58
25560;BME280;13450;49.374;8.584;2023-02-10T14:08:33;102691.47;;;12.53;37.88
25560;BME280;13450;49.374;8.584;2023-02-10T14:13:31;102697.59;;;11.23;41.24
25560;BME280;13450;49.374;8.584;2023-02-10T14:15:58;102687.66;;;11.14;42.44
25560;BME280;13450;49.374;8.584;2023-02-10T14:18:34;102693.66;;;10.75;43.10
25560;BME280;13450;49.374;8.584;2023-02-10T14:23:30;102688.91;;;9.80;45.10
25560;BME280;13450;49.374;8.584;2023-02-10T14:25:58;102692.13;;;9.17;47.00
25560;BME280;13450;49.374;8.584;2023-02-10T14:28:30;102683.19;;;8.71;48.52
25560;BME280;13450;49.374;8.584;2023-02-10T14:31:04;102686.69;;;8.35;50.48
25560;BME280;13450;49.374;8.584;2023-02-10T14:33:35;102677.97;;;8.09;52.02
25560;BME280;13450;49.374;8.584;2023-02-10T14:36:15;102675.84;;;8.25;52.66
25560;BME280;13450;49.374;8.584;2023-02-10T14:38:43;102673.44;;;8.22;52.62
25560;BME280;13450;49.374;8.584;2023-02-10T14:41:12;102676.41;;;8.06;54.19
25560;BME280;13450;49.374;8.584;2023-02-10T14:43:42;102667.31;;;7.84;55.32
25560;BME280;13450;49.374;8.584;2023-02-10T14:46:11;102668.38;;;7.82;56.39
25560;BME280;13450;49.374;8.584;2023-02-10T14:48:42;102664.06;;;7.92;56.75
25560;BME280;13450;49.374;8.584;2023-02-10T14:51:19;102663.63;;;7.98;56.07
25560;BME280;13450;49.374;8.584;2023-02-10T14:53:45;102663.56;;;7.87;56.32
25560;BME280;13450;49.374;8.584;2023-02-10T14:56:22;102658.94;;;7.89;57.37
25560;BME280;13450;49.374;8.584;2023-02-10T14:58:48;102651.53;;;7.81;57.83
25560;BME280;13450;49.374;8.584;2023-02-10T15:01:34;102644.72;;;7.77;57.71
25560;BME280;13450;49.374;8.584;2023-02-10T15:04:01;102652.31;;;7.70;58.70
25560;BME280;13450;49.374;8.584;2023-02-10T15:06:30;102662.66;;;7.62;58.98
25560;BME280;13450;49.374;8.584;2023-02-10T15:09:10;102650.72;;;7.68;59.39
25560;BME280;13450;49.374;8.584;2023-02-10T15:11:45;102648.69;;;7.71;60.20
25560;BME280;13450;49.374;8.584;2023-02-10T15:14:35;102646.88;;;7.72;59.57
25560;BME280;13450;49.374;8.584;2023-02-10T15:17:07;102655.44;;;7.64;60.12
25560;BME280;13450;49.374;8.584;2023-02-10T15:19:35;102649.91;;;7.54;60.71
25560;BME280;13450;49.374;8.584;2023-02-10T15:22:00;102656.31;;;7.52;61.51
25560;BME280;13450;49.374;8.584;2023-02-10T15:24:28;102662.47;;;7.65;60.55
25560;BME280;13450;49.374;8.584;2023-02-10T15:27:07;102662.91;;;7.59;62.33
25560;BME280;13450;49.374;8.584;2023-02-10T15:29:36;102659.50;;;7.57;62.28
25560;BME280;13450;49.374;8.584;2023-02-10T15:32:02;102657.59;;;7.46;62.46
25560;BME280;13450;49.374;8.584;2023-02-10T15:34:31;102661.03;;;7.35;63.06
25560;BME280;13450;49.374;8.584;2023-02-10T15:37:00;102669.66;;;7.26;64.07
25560;BME280;13450;49.374;8.584;2023-02-10T15:39:32;102658.91;;;7.40;64.81
25560;BME280;13450;49.374;8.584;2023-02-10T15:42:04;102664.31;;;7.52;64.33
25560;BME280;13450;49.374;8.584;2023-02-10T15:44:31;102656.25;;;7.78;62.42
25560;BME280;13450;49.374;8.584;2023-02-10T15:49:58;102649.94;;;8.03;61.44
25560;BME280;13450;49.374;8.584;2023-02-10T15:52:30;102652.00;;;8.00;59.71
25560;BME280;13450;49.374;8.584;2023-02-10T15:54:59;102655.56;;;8.11;60.51
25560;BME280;13450;49.374;8.584;2023-02-10T15:57:24;102648.00;;;8.05;59.53
25560;BME280;13450;49.374;8.584;2023-02-10T15:59:50;102647.34;;;7.90;60.39
25560;BME280;13450;49.374;8.584;2023-02-10T16:02:19;102653.94;;;7.60;60.21
25560;BME280;13450;49.374;8.584;2023-02-10T16:04:45;102645.19;;;7.33;62.89
25560;BME280;13450;49.374;8.584;2023-02-10T16:07:22;102647.66;;;7.11;64.16
25560;BME280;13450;49.374;8.584;2023-02-10T16:09:51;102643.19;;;6.85;64.90
25560;BME280;13450;49.374;8.584;2023-02-10T16:12:18;102647.84;;;6.56;68.48
25560;BME280;13450;49.374;8.584;2023-02-10T16:14:43;102639.50;;;6.34;71.88
25560;BME280;13450;49.374;8.584;2023-02-10T16:17:17;102643.09;;;6.20;73.67
25560;BME280;13450;49.374;8.584;2023-02-10T16:19:43;102641.56;;;6.03;72.90
25560;BME280;13450;49.374;8.584;2023-02-10T16:22:09;102627.75;;;5.83;75.38
25560;BME280;13450;49.374;8.584;2023-02-10T16:24:36;102624.56;;;5.63;75.61
25560;BME280;13450;49.374;8.584;2023-02-10T16:27:01;102638.06;;;5.46;79.13
25560;BME280;13450;49.374;8.584;2023-02-10T16:29:29;102640.97;;;5.28;82.71
25560;BME280;13450;49.374;8.584;2023-02-10T16:31:54;102630.53;;;5.10;82.56
25560;BME280;13450;49.374;8.584;2023-02-10T16:34:23;102636.03;;;4.93;84.18
25560;BME280;13450;49.374;8.584;2023-02-10T16:36:48;102633.38;;;4.78;89.99
25560;BME280;13450;49.374;8.584;2023-02-10T16:39:19;102633.31;;;4.64;91.81
25560;BME280;13450;49.374;8.584;2023-02-10T16:41:46;102635.22;;;4.47;92.51
25560;BME280;13450;49.374;8.584;2023-02-10T16:44:12;102637.78;;;4.32;90.37
25560;BME280;13450;49.374;8.584;2023-02-10T16:46:38;102643.84;;;4.20;93.90
25560;BME280;13450;49.374;8.584;2023-02-10T16:49:03;102640.19;;;4.07;92.83
25560;BME280;13450;49.374;8.584;2023-02-10T16:51:29;102652.22;;;3.96;95.27
25560;BME280;13450;49.374;8.584;2023-02-10T16:53:55;102649.16;;;3.88;97.23
25560;BME280;13450;49.374;8.584;2023-02-10T16:56:21;102647.22;;;3.75;93.60
25560;BME280;13450;49.374;8.584;2023-02-10T16:58:55;102648.50;;;3.68;93.61
25560;BME280;13450;49.374;8.584;2023-02-10T17:01:21;102646.19;;;3.62;96.20
25560;BME280;13450;49.374;8.584;2023-02-10T17:03:46;102652.09;;;3.51;92.53
25560;BME280;13450;49.374;8.584;2023-02-10T17:06:17;102647.44;;;3.38;89.90
25560;BME280;13450;49.374;8.584;2023-02-10T17:08:43;102655.63;;;3.34;97.09
25560;BME280;13450;49.374;8.584;2023-02-10T17:11:08;102654.34;;;3.25;94.58
25560;BME280;13450;49.374;8.584;2023-02-10T17:13:34;102645.88;;;3.18;96.19
25560;BME280;13450;49.374;8.584;2023-02-10T17:16:00;102661.97;;;3.13;97.17
25560;BME280;13450;49.374;8.584;2023-02-10T17:18:25;102664.22;;;3.05;100.00
25560;BME280;13450;49.374;8.584;2023-02-10T17:20:51;102659.28;;;2.97;100.00
25560;BME280;13450;49.374;8.584;2023-02-10T17:23:16;102660.56;;;2.90;100.00
25560;BME280;13450;49.374;8.584;2023-02-10T17:25:42;102671.44;;;2.84;99.38
25560;BME280;13450;49.374;8.584;2023-02-10T17:28:09;102678.00;;;2.77;97.51
25560;BME280;13450;49.374;8.584;2023-02-10T17:30:39;102673.88;;;2.71;98.63
25560;BME280;13450;49.374;8.584;2023-02-10T17:33:12;102679.50;;;2.65;98.68
25560;BME280;13450;49.374;8.584;2023-02-10T17:35:46;102681.41;;;2.61;100.00
25560;BME280;13450;49.374;8.584;2023-02-10T17:38:12;102678.16;;;2.56;100.00
25560;BME280;13450;49.374;8.584;2023-02-10T17:40:56;102691.69;;;2.50;100.00
25560;BME280;13450;49.374;8.584;2023-02-10T17:43:24;102689.28;;;2.45;100.00
25560;BME280;13450;49.374;8.584;2023-02-10T17:45:49;102678.88;;;2.42;100.00
25560;BME280;13450;49.374;8.584;2023-02-10T17:48:15;102696.66;;;2.38;100.00
25560;BME280;13450;49.374;8.584;2023-02-10T17:50:40;102693.09;;;2.39;100.00
25560;BME280;13450;49.374;8.584;2023-02-10T17:53:06;102701.16;;;2.36;100.00
25560;BME280;13450;49.374;8.584;2023-02-10T17:55:32;102682.88;;;2.31;100.00
25560;BME280;13450;49.374;8.584;2023-02-10T17:57:58;102694.31;;;2.32;100.00
25560;BME280;13450;49.374;8.584;2023-02-10T18:00:23;102699.75;;;2.29;100.00
25560;BME280;13450;49.374;8.584;2023-02-10T18:02:48;102691.31;;;2.20;100.00
25560;BME280;13450;49.374;8.584;2023-02-10T18:05:14;102687.22;;;2.15;100.00
25560;BME280;13450;49.374;8.584;2023-02-10T18:07:40;102691.16;;;2.06;100.00
25560;BME280;13450;49.374;8.584;2023-02-10T18:10:06;102690.53;;;2.01;100.00
25560;BME280;13450;49.374;8.584;2023-02-10T18:12:31;102696.09;;;1.94;100.00
25560;BME280;13450;49.374;8.584;2023-02-10T18:14:57;102707.81;;;1.89;100.00
25560;BME280;13450;49.374;8.584;2023-02-10T18:17:24;102702.91;;;1.81;100.00
25560;BME280;13450;49.374;8.584;2023-02-10T18:19:50;102709.25;;;1.77;100.00
25560;BME280;13450;49.374;8.584;2023-02-10T18:22:15;102702.47;;;1.71;100.00
25560;BME280;13450;49.374;8.584;2023-02-10T18:24:40;102708.03;;;1.65;100.00
25560;BME280;13450;49.374;8.584;2023-02-10T18:27:06;102703.09;;;1.57;100.00
25560;BME280;13450;49.374;8.584;2023-02-10T18:29:31;102710.22;;;1.55;100.00
25560;BME280;13450;49.374;8.584;2023-02-10T18:31:57;102713.22;;;1.47;100.00
25560;BME280;13450;49.374;8.584;2023-02-10T18:34:22;102712.47;;;1.43;100.00
25560;BME280;13450;49.374;8.584;2023-02-10T18:36:48;102712.66;;;1.40;100.00
25560;BME280;13450;49.374;8.584;2023-02-10T18:39:14;102714.75;;;1.32;100.00
25560;BME280;13450;49.374;8.584;2023-02-10T18:41:39;102712.38;;;1.26;100.00
25560;BME280;13450;49.374;8.584;2023-02-10T18:44:05;102705.41;;;1.25;100.00
25560;BME280;13450;49.374;8.584;2023-02-10T18:46:32;102709.16;;;1.19;100.00
25560;BME280;13450;49.374;8.584;2023-02-10T18:48:58;102711.88;;;1.17;100.00
25560;BME280;13450;49.374;8.584;2023-02-10T18:51:24;102704.16;;;1.13;100.00
25560;BME280;13450;49.374;8.584;2023-02-10T18:53:51;102707.91;;;1.07;100.00
25560;BME280;13450;49.374;8.584;2023-02-10T18:56:18;102701.88;;;1.05;100.00
25560;BME280;13450;49.374;8.584;2023-02-10T18:58:44;102711.66;;;1.01;100.00
25560;BME280;13450;49.374;8.584;2023-02-10T19:01:21;102717.09;;;0.98;100.00
25560;BME280;13450;49.374;8.584;2023-02-10T19:03:47;102712.16;;;0.90;100.00
25560;BME280;13450;49.374;8.584;2023-02-10T19:06:13;102702.66;;;0.86;100.00
25560;BME280;13450;49.374;8.584;2023-02-10T19:08:39;102694.34;;;0.75;100.00
25560;BME280;13450;49.374;8.584;2023-02-10T19:11:07;102706.75;;;0.73;100.00
25560;BME280;13450;49.374;8.584;2023-02-10T19:13:35;102698.97;;;0.70;100.00
25560;BME280;13450;49.374;8.584;2023-02-10T19:16:02;102707.91;;;0.65;100.00
25560;BME280;13450;49.374;8.584;2023-02-10T19:21:23;102712.53;;;0.60;100.00
25560;BME280;13450;49.374;8.584;2023-02-10T19:44:22;102740.72;;;0.13;100.00
25560;BME280;13450;49.374;8.584;2023-02-10T19:49:27;102733.97;;;0.06;100.00
25560;BME280;13450;49.374;8.584;2023-02-10T19:51:58;102748.19;;;0.02;100.00
25560;BME280;13450;49.374;8.584;2023-02-10T19:54:36;102740.34;;;0.01;100.00
25560;BME280;13450;49.374;8.584;2023-02-10T19:57:20;102738.63;;;-0.01;100.00
25560;BME280;13450;49.374;8.584;2023-02-10T20:00:14;102737.03;;;-0.05;100.00
25560;BME280;13450;49.374;8.584;2023-02-10T20:08:55;102725.09;;;-0.14;100.00
25560;BME280;13450;49.374;8.584;2023-02-10T20:14:33;102726.03;;;-0.16;100.00
25560;BME280;13450;49.374;8.584;2023-02-10T20:19:33;102712.44;;;-0.28;100.00
25560;BME280;13450;49.374;8.584;2023-02-10T20:24:34;102712.44;;;-0.28;100.00
25560;BME280;13450;49.374;8.584;2023-02-10T20:37:20;102695.69;;;-0.49;100.00
25560;BME280;13450;49.374;8.584;2023-02-10T20:39:45;102699.34;;;-0.53;100.00
25560;BME280;13450;49.374;8.584;2023-02-10T20:42:13;102685.50;;;-0.58;100.00
25560;BME280;13450;49.374;8.584;2023-02-10T20:44:41;102688.25;;;-0.61;100.00
25560;BME280;13450;49.374;8.584;2023-02-10T20:47:06;102689.16;;;-0.62;100.00
25560;BME280;13450;49.374;8.584;2023-02-10T20:49:38;102683.91;;;-0.62;100.00
25560;BME280;13450;49.374;8.584;2023-02-10T20:52:06;102685.63;;;-0.61;100.00
25560;BME280;13450;49.374;8.584;2023-02-10T20:57:09;102679.53;;;-0.63;100.00
25560;BME280;13450;49.374;8.584;2023-02-10T20:59:34;102678.75;;;-0.66;100.00
25560;BME280;13450;49.374;8.584;2023-02-10T21:02:00;102680.47;;;-0.64;100.00
25560;BME280;13450;49.374;8.584;2023-02-10T21:06:55;102671.63;;;-0.63;100.00
25560;BME280;13450;49.374;8.584;2023-02-10T21:09:27;102668.13;;;-0.62;100.00
25560;BME280;13450;49.374;8.584;2023-02-10T21:12:01;102670.69;;;-0.61;100.00
25560;BME280;13450;49.374;8.584;2023-02-10T21:14:27;102664.66;;;-0.64;100.00
25560;BME280;13450;49.374;8.584;2023-02-10T21:19:30;102667.44;;;-0.68;100.00
25560;BME280;13450;49.374;8.584;2023-02-10T21:21:56;102673.59;;;-0.69;100.00
25560;BME280;13450;49.374;8.584;2023-02-10T21:29:32;102685.25;;;-0.76;100.00
25560;BME280;13450;49.374;8.584;2023-02-10T21:32:00;102677.38;;;-0.76;100.00
25560;BME280;13450;49.374;8.584;2023-02-10T21:34:25;102679.19;;;-0.78;100.00
25560;BME280;13450;49.374;8.584;2023-02-10T21:39:30;102681.22;;;-0.86;100.00
25560;BME280;13450;49.374;8.584;2023-02-10T21:41:56;102685.78;;;-0.92;100.00
25560;BME280;13450;49.374;8.584;2023-02-10T21:44:30;102682.47;;;-0.97;100.00
25560;BME280;13450;49.374;8.584;2023-02-10T21:52:10;102687.03;;;-1.02;100.00
25560;BME280;13450;49.374;8.584;2023-02-10T21:54:39;102685.44;;;-1.06;100.00
25560;BME280;13450;49.374;8.584;2023-02-10T21:57:05;102683.81;;;-1.10;100.00
25560;BME280;13450;49.374;8.584;2023-02-10T22:02:10;102687.56;;;-1.17;100.00
25560;BME280;13450;49.374;8.584;2023-02-10T22:04:37;102692.94;;;-1.21;100.00
25560;BME280;13450;49.374;8.584;2023-02-10T22:09:38;102687.78;;;-1.24;100.00
25560;BME280;13450;49.374;8.584;2023-02-10T22:15:03;102687.88;;;-1.27;100.00
25560;BME280;13450;49.374;8.584;2023-02-10T22:17:29;102686.25;;;-1.31;100.00